sensor_id;sensor_type;location;lat;lon;timestamp;P1;durP1;ratioP1;P2;durP2;ratioP2
12980;SDS011;6555;50.468;8.480;2022-08-19T00:02:11;4.25;;;3.72;;
12980;SDS011;6555;50.468;8.480;2022-08-19T00:07:42;4.07;;;3.67;;
12980;SDS011;6555;50.468;8.480;2022-08-19T00:12:59;4.28;;;3.80;;
12980;SDS011;6555;50.468;8.480;2022-08-19T00:18:29;4.13;;;3.63;;
12980;SDS011;6555;50.468;8.480;2022-08-19T00:23:47;4.05;;;3.65;;
12980;SDS011;6555;50.468;8.480;2022-08-19T00:29:20;4.75;;;4.07;;
12980;SDS011;6555;50.468;8.480;2022-08-19T00:34:37;4.45;;;3.90;;
12980;SDS011;6555;50.468;8.480;2022-08-19T00:40:09;4.03;;;3.30;;
12980;SDS011;6555;50.468;8.480;2022-08-19T00:45:27;3.88;;;3.47;;
12980;SDS011;6555;50.468;8.480;2022-08-19T00:50:58;3.63;;;3.33;;
12980;SDS011;6555;50.468;8.480;2022-08-19T00:56:16;5.35;;;4.22;;
12980;SDS011;6555;50.468;8.480;2022-08-19T01:01:48;4.40;;;3.92;;
12980;SDS011;6555;50.468;8.480;2022-08-19T01:07:04;4.35;;;3.95;;
12980;SDS011;6555;50.468;8.480;2022-08-19T01:12:35;4.65;;;4.25;;
12980;SDS011;6555;50.468;8.480;2022-08-19T01:17:52;5.55;;;4.85;;
12980;SDS011;6555;50.468;8.480;2022-08-19T01:23:25;5.97;;;5.38;;
12980;SDS011;6555;50.468;8.480;2022-08-19T01:28:57;5.05;;;4.00;;
12980;SDS011;6555;50.468;8.480;2022-08-19T01:34:29;4.55;;;4.15;;
12980;SDS011;6555;50.468;8.480;2022-08-19T01:39:47;3.70;;;3.40;;
12980;SDS011;6555;50.468;8.480;2022-08-19T01:45:24;4.05;;;3.63;;
12980;SDS011;6555;50.468;8.480;2022-08-19T01:50:42;4.30;;;3.90;;
12980;SDS011;6555;50.468;8.480;2022-08-19T01:56:13;4.30;;;3.90;;
12980;SDS011;6555;50.468;8.480;2022-08-19T02:01:30;4.43;;;4.03;;
12980;SDS011;6555;50.468;8.480;2022-08-19T02:07:00;3.92;;;3.63;;
12980;SDS011;6555;50.468;8.480;2022-08-19T02:12:17;4.35;;;3.95;;
12980;SDS011;6555;50.468;8.480;2022-08-19T02:17:51;3.95;;;3.50;;
12980;SDS011;6555;50.468;8.480;2022-08-19T02:23:08;4.57;;;4.18;;
12980;SDS011;6555;50.468;8.480;2022-08-19T02:28:41;4.55;;;4.15;;
12980;SDS011;6555;50.468;8.480;2022-08-19T02:33:58;4.45;;;3.97;;
12980;SDS011;6555;50.468;8.480;2022-08-19T02:39:28;4.45;;;3.92;;
12980;SDS011;6555;50.468;8.480;2022-08-19T02:44:45;3.33;;;3.03;;
12980;SDS011;6555;50.468;8.480;2022-08-19T02:50:17;4.32;;;3.92;;
12980;SDS011;6555;50.468;8.480;2022-08-19T02:55:33;4.43;;;4.05;;
12980;SDS011;6555;50.468;8.480;2022-08-19T03:01:05;4.93;;;4.32;;
12980;SDS011;6555;50.468;8.480;2022-08-19T03:06:22;4.00;;;3.60;;
12980;SDS011;6555;50.468;8.480;2022-08-19T03:11:53;4.05;;;3.67;;
12980;SDS011;6555;50.468;8.480;2022-08-19T03:17:10;4.18;;;3.65;;
12980;SDS011;6555;50.468;8.480;2022-08-19T03:22:41;3.85;;;3.53;;
12980;SDS011;6555;50.468;8.480;2022-08-19T03:27:57;4.72;;;3.85;;
12980;SDS011;6555;50.468;8.480;2022-08-19T03:33:29;4.00;;;3.58;;
12980;SDS011;6555;50.468;8.480;2022-08-19T03:38:47;4.88;;;4.03;;
12980;SDS011;6555;50.468;8.480;2022-08-19T03:44:19;4.40;;;3.58;;
12980;SDS011;6555;50.468;8.480;2022-08-19T03:49:38;4.13;;;3.78;;
12980;SDS011;6555;50.468;8.480;2022-08-19T03:55:09;4.03;;;3.60;;
12980;SDS011;6555;50.468;8.480;2022-08-19T04:00:41;3.65;;;3.28;;
12980;SDS011;6555;50.468;8.480;2022-08-19T04:06:14;3.95;;;3.65;;
12980;SDS011;6555;50.468;8.480;2022-08-19T04:11:37;3.97;;;3.58;;
12980;SDS011;6555;50.468;8.480;2022-08-19T04:17:09;3.88;;;3.53;;
12980;SDS011;6555;50.468;8.480;2022-08-19T04:22:28;4.10;;;3.70;;
12980;SDS011;6555;50.468;8.480;2022-08-19T04:27:59;3.70;;;3.38;;
12980;SDS011;6555;50.468;8.480;2022-08-19T04:33:16;4.55;;;3.58;;
12980;SDS011;6555;50.468;8.480;2022-08-19T04:38:52;4.15;;;3.75;;
12980;SDS011;6555;50.468;8.480;2022-08-19T04:44:10;4.15;;;3.75;;
12980;SDS011;6555;50.468;8.480;2022-08-19T04:49:41;4.03;;;3.42;;
12980;SDS011;6555;50.468;8.480;2022-08-19T04:54:58;3.78;;;3.38;;
12980;SDS011;6555;50.468;8.480;2022-08-19T05:00:29;3.88;;;3.40;;
12980;SDS011;6555;50.468;8.480;2022-08-19T05:05:45;3.58;;;3.28;;
12980;SDS011;6555;50.468;8.480;2022-08-19T05:11:19;3.85;;;3.55;;
12980;SDS011;6555;50.468;8.480;2022-08-19T05:16:37;3.92;;;3.63;;
12980;SDS011;6555;50.468;8.480;2022-08-19T05:22:28;3.55;;;3.25;;
12980;SDS011;6555;50.468;8.480;2022-08-19T05:27:50;3.50;;;3.20;;
12980;SDS011;6555;50.468;8.480;2022-08-19T05:33:21;3.83;;;3.53;;
12980;SDS011;6555;50.468;8.480;2022-08-19T05:38:38;4.00;;;3.60;;
12980;SDS011;6555;50.468;8.480;2022-08-19T05:44:10;3.85;;;3.47;;
12980;SDS011;6555;50.468;8.480;2022-08-19T05:49:27;4.53;;;3.75;;
12980;SDS011;6555;50.468;8.480;2022-08-19T05:54:58;4.07;;;3.67;;
12980;SDS011;6555;50.468;8.480;2022-08-19T06:00:16;3.83;;;3.53;;
12980;SDS011;6555;50.468;8.480;2022-08-19T06:05:46;4.65;;;3.47;;
12980;SDS011;6555;50.468;8.480;2022-08-19T06:11:12;5.30;;;3.85;;
12980;SDS011;6555;50.468;8.480;2022-08-19T06:16:48;4.05;;;3.65;;
12980;SDS011;6555;50.468;8.480;2022-08-19T06:22:10;3.85;;;2.78;;
12980;SDS011;6555;50.468;8.480;2022-08-19T06:27:40;3.75;;;3.03;;
12980;SDS011;6555;50.468;8.480;2022-08-19T06:33:18;3.13;;;2.83;;
12980;SDS011;6555;50.468;8.480;2022-08-19T06:38:49;3.30;;;3.00;;
12980;SDS011;6555;50.468;8.480;2022-08-19T06:44:05;3.08;;;2.78;;
12980;SDS011;6555;50.468;8.480;2022-08-19T06:49:39;2.50;;;2.28;;
12980;SDS011;6555;50.468;8.480;2022-08-19T06:54:56;2.70;;;2.50;;
12980;SDS011;6555;50.468;8.480;2022-08-19T07:00:26;2.15;;;1.95;;
12980;SDS011;6555;50.468;8.480;2022-08-19T07:05:43;3.20;;;2.33;;
12980;SDS011;6555;50.468;8.480;2022-08-19T07:11:15;4.20;;;1.90;;
12980;SDS011;6555;50.468;8.480;2022-08-19T07:16:36;2.75;;;2.13;;
12980;SDS011;6555;50.468;8.480;2022-08-19T07:22:09;3.53;;;2.05;;
12980;SDS011;6555;50.468;8.480;2022-08-19T07:27:33;2.33;;;2.13;;
12980;SDS011;6555;50.468;8.480;2022-08-19T07:33:08;2.97;;;2.53;;
12980;SDS011;6555;50.468;8.480;2022-08-19T07:38:25;3.33;;;2.95;;
12980;SDS011;6555;50.468;8.480;2022-08-19T07:44:00;4.20;;;2.90;;
12980;SDS011;6555;50.468;8.480;2022-08-19T07:49:18;2.40;;;2.20;;
12980;SDS011;6555;50.468;8.480;2022-08-19T07:54:50;3.17;;;2.88;;
12980;SDS011;6555;50.468;8.480;2022-08-19T08:00:07;2.92;;;2.63;;
12980;SDS011;6555;50.468;8.480;2022-08-19T08:05:38;3.53;;;2.55;;
12980;SDS011;6555;50.468;8.480;2022-08-19T08:11:14;2.95;;;2.60;;
12980;SDS011;6555;50.468;8.480;2022-08-19T08:16:45;2.72;;;2.47;;
12980;SDS011;6555;50.468;8.480;2022-08-19T08:22:01;2.47;;;2.28;;
12980;SDS011;6555;50.468;8.480;2022-08-19T08:27:53;2.63;;;2.42;;
12980;SDS011;6555;50.468;8.480;2022-08-19T08:33:10;2.45;;;2.25;;
12980;SDS011;6555;50.468;8.480;2022-08-19T08:38:48;2.40;;;2.20;;
12980;SDS011;6555;50.468;8.480;2022-08-19T08:44:05;2.80;;;2.58;;
12980;SDS011;6555;50.468;8.480;2022-08-19T08:49:40;2.50;;;2.30;;
12980;SDS011;6555;50.468;8.480;2022-08-19T08:55:05;3.17;;;2.90;;
12980;SDS011;6555;50.468;8.480;2022-08-19T09:00:40;3.35;;;2.35;;
12980;SDS011;6555;50.468;8.480;2022-08-19T09:06:16;3.20;;;2.95;;
12980;SDS011;6555;50.468;8.480;2022-08-19T09:11:56;3.90;;;3.60;;
12980;SDS011;6555;50.468;8.480;2022-08-19T09:17:41;4.10;;;3.78;;
12980;SDS011;6555;50.468;8.480;2022-08-19T09:22:58;3.85;;;3.42;;
12980;SDS011;6555;50.468;8.480;2022-08-19T09:28:28;2.95;;;2.75;;
12980;SDS011;6555;50.468;8.480;2022-08-19T09:33:52;3.83;;;3.20;;
12980;SDS011;6555;50.468;8.480;2022-08-19T09:39:35;3.55;;;3.25;;
12980;SDS011;6555;50.468;8.480;2022-08-19T09:44:52;3.47;;;3.17;;
12980;SDS011;6555;50.468;8.480;2022-08-19T09:50:25;3.70;;;3.40;;
12980;SDS011;6555;50.468;8.480;2022-08-19T09:55:42;3.22;;;2.92;;
12980;SDS011;6555;50.468;8.480;2022-08-19T10:01:17;3.05;;;2.85;;
12980;SDS011;6555;50.468;8.480;2022-08-19T10:06:37;2.97;;;2.78;;
12980;SDS011;6555;50.468;8.480;2022-08-19T10:12:09;3.65;;;3.35;;
12980;SDS011;6555;50.468;8.480;2022-08-19T10:17:26;3.92;;;3.53;;
12980;SDS011;6555;50.468;8.480;2022-08-19T10:23:09;3.53;;;3.22;;
12980;SDS011;6555;50.468;8.480;2022-08-19T10:28:26;3.60;;;3.30;;
12980;SDS011;6555;50.468;8.480;2022-08-19T10:34:00;4.93;;;4.45;;
12980;SDS011;6555;50.468;8.480;2022-08-19T10:39:19;4.05;;;3.75;;
12980;SDS011;6555;50.468;8.480;2022-08-19T10:44:57;5.35;;;3.85;;
12980;SDS011;6555;50.468;8.480;2022-08-19T10:50:13;4.82;;;4.43;;
12980;SDS011;6555;50.468;8.480;2022-08-19T10:56:03;4.53;;;4.22;;
12980;SDS011;6555;50.468;8.480;2022-08-19T11:01:37;4.05;;;3.75;;
12980;SDS011;6555;50.468;8.480;2022-08-19T11:07:09;4.00;;;3.70;;
12980;SDS011;6555;50.468;8.480;2022-08-19T11:12:28;3.83;;;3.53;;
12980;SDS011;6555;50.468;8.480;2022-08-19T11:17:58;3.97;;;3.67;;
12980;SDS011;6555;50.468;8.480;2022-08-19T11:23:20;4.07;;;3.78;;
12980;SDS011;6555;50.468;8.480;2022-08-19T11:28:52;3.75;;;3.45;;
12980;SDS011;6555;50.468;8.480;2022-08-19T11:34:10;4.00;;;3.28;;
12980;SDS011;6555;50.468;8.480;2022-08-19T11:39:42;3.13;;;2.92;;
12980;SDS011;6555;50.468;8.480;2022-08-19T11:45:02;3.38;;;3.10;;
12980;SDS011;6555;50.468;8.480;2022-08-19T11:50:18;3.80;;;3.50;;
12980;SDS011;6555;50.468;8.480;2022-08-19T11:55:50;3.35;;;3.15;;
12980;SDS011;6555;50.468;8.480;2022-08-19T12:01:12;3.50;;;3.30;;
12980;SDS011;6555;50.468;8.480;2022-08-19T12:06:44;3.50;;;3.22;;
12980;SDS011;6555;50.468;8.480;2022-08-19T12:12:00;3.25;;;3.05;;
12980;SDS011;6555;50.468;8.480;2022-08-19T12:17:31;3.00;;;2.80;;
12980;SDS011;6555;50.468;8.480;2022-08-19T12:22:48;2.95;;;2.75;;
12980;SDS011;6555;50.468;8.480;2022-08-19T12:28:18;2.90;;;2.70;;
12980;SDS011;6555;50.468;8.480;2022-08-19T12:33:37;3.13;;;2.92;;
12980;SDS011;6555;50.468;8.480;2022-08-19T12:39:07;2.83;;;2.63;;
12980;SDS011;6555;50.468;8.480;2022-08-19T12:44:23;2.67;;;2.47;;
12980;SDS011;6555;50.468;8.480;2022-08-19T12:49:56;2.55;;;2.35;;
12980;SDS011;6555;50.468;8.480;2022-08-19T12:55:14;2.05;;;1.95;;
12980;SDS011;6555;50.468;8.480;2022-08-19T13:00:44;3.47;;;1.90;;
12980;SDS011;6555;50.468;8.480;2022-08-19T13:06:02;2.30;;;2.10;;
12980;SDS011;6555;50.468;8.480;2022-08-19T13:11:35;2.00;;;1.90;;
12980;SDS011;6555;50.468;8.480;2022-08-19T13:16:52;1.85;;;1.75;;
12980;SDS011;6555;50.468;8.480;2022-08-19T13:22:24;1.90;;;1.80;;
12980;SDS011;6555;50.468;8.480;2022-08-19T13:27:41;1.85;;;1.70;;
12980;SDS011;6555;50.468;8.480;2022-08-19T13:33:11;2.15;;;1.98;;
12980;SDS011;6555;50.468;8.480;2022-08-19T13:38:31;2.08;;;1.98;;
12980;SDS011;6555;50.468;8.480;2022-08-19T13:44:01;2.28;;;2.17;;
12980;SDS011;6555;50.468;8.480;2022-08-19T13:49:18;2.60;;;2.00;;
12980;SDS011;6555;50.468;8.480;2022-08-19T13:54:50;1.90;;;1.80;;
12980;SDS011;6555;50.468;8.480;2022-08-19T14:00:08;1.60;;;1.50;;
12980;SDS011;6555;50.468;8.480;2022-08-19T14:05:40;1.60;;;1.50;;
12980;SDS011;6555;50.468;8.480;2022-08-19T14:10:58;1.70;;;1.60;;
12980;SDS011;6555;50.468;8.480;2022-08-19T14:16:28;1.65;;;1.55;;
12980;SDS011;6555;50.468;8.480;2022-08-19T14:21:44;1.70;;;1.60;;
12980;SDS011;6555;50.468;8.480;2022-08-19T14:27:16;1.60;;;1.50;;
12980;SDS011;6555;50.468;8.480;2022-08-19T14:32:32;1.85;;;1.75;;
12980;SDS011;6555;50.468;8.480;2022-08-19T14:38:05;1.98;;;1.88;;
12980;SDS011;6555;50.468;8.480;2022-08-19T14:43:24;1.83;;;1.73;;
12980;SDS011;6555;50.468;8.480;2022-08-19T14:48:55;1.80;;;1.70;;
12980;SDS011;6555;50.468;8.480;2022-08-19T14:54:16;1.90;;;1.73;;
12980;SDS011;6555;50.468;8.480;2022-08-19T14:59:48;1.90;;;1.80;;
12980;SDS011;6555;50.468;8.480;2022-08-19T15:05:18;2.25;;;2.15;;
12980;SDS011;6555;50.468;8.480;2022-08-19T15:10:35;2.58;;;2.38;;
12980;SDS011;6555;50.468;8.480;2022-08-19T15:16:09;2.42;;;2.00;;
12980;SDS011;6555;50.468;8.480;2022-08-19T15:21:26;2.20;;;1.77;;
12980;SDS011;6555;50.468;8.480;2022-08-19T15:27:00;2.03;;;1.92;;
12980;SDS011;6555;50.468;8.480;2022-08-19T15:32:19;1.80;;;1.70;;
12980;SDS011;6555;50.468;8.480;2022-08-19T15:37:49;2.30;;;1.98;;
12980;SDS011;6555;50.468;8.480;2022-08-19T15:43:06;2.30;;;2.10;;
12980;SDS011;6555;50.468;8.480;2022-08-19T15:48:38;2.97;;;1.63;;
12980;SDS011;6555;50.468;8.480;2022-08-19T15:54:04;2.30;;;2.10;;
12980;SDS011;6555;50.468;8.480;2022-08-19T15:59:36;2.10;;;2.00;;
12980;SDS011;6555;50.468;8.480;2022-08-19T16:05:13;2.40;;;2.20;;
12980;SDS011;6555;50.468;8.480;2022-08-19T16:11:01;2.10;;;2.00;;
12980;SDS011;6555;50.468;8.480;2022-08-19T16:16:17;2.88;;;2.22;;
12980;SDS011;6555;50.468;8.480;2022-08-19T16:21:52;2.30;;;2.10;;
12980;SDS011;6555;50.468;8.480;2022-08-19T16:27:09;2.50;;;2.28;;
12980;SDS011;6555;50.468;8.480;2022-08-19T16:32:41;2.70;;;2.50;;
12980;SDS011;6555;50.468;8.480;2022-08-19T16:37:59;2.45;;;2.33;;
12980;SDS011;6555;50.468;8.480;2022-08-19T16:43:30;2.47;;;2.28;;
12980;SDS011;6555;50.468;8.480;2022-08-19T16:48:47;2.20;;;2.08;;
12980;SDS011;6555;50.468;8.480;2022-08-19T16:54:19;2.10;;;2.00;;
12980;SDS011;6555;50.468;8.480;2022-08-19T16:59:39;2.10;;;2.00;;
12980;SDS011;6555;50.468;8.480;2022-08-19T17:05:09;2.50;;;2.30;;
12980;SDS011;6555;50.468;8.480;2022-08-19T17:10:27;2.28;;;2.17;;
12980;SDS011;6555;50.468;8.480;2022-08-19T17:16:19;2.22;;;2.03;;
12980;SDS011;6555;50.468;8.480;2022-08-19T17:21:38;2.35;;;2.15;;
12980;SDS011;6555;50.468;8.480;2022-08-19T17:27:10;2.55;;;2.35;;
12980;SDS011;6555;50.468;8.480;2022-08-19T17:32:26;2.40;;;2.20;;
12980;SDS011;6555;50.468;8.480;2022-08-19T17:37:56;2.22;;;2.13;;
12980;SDS011;6555;50.468;8.480;2022-08-19T17:43:14;2.28;;;2.13;;
12980;SDS011;6555;50.468;8.480;2022-08-19T17:48:48;2.80;;;1.90;;
12980;SDS011;6555;50.468;8.480;2022-08-19T17:54:11;2.03;;;1.92;;
12980;SDS011;6555;50.468;8.480;2022-08-19T17:59:49;2.67;;;2.28;;
12980;SDS011;6555;50.468;8.480;2022-08-19T18:05:06;2.03;;;1.92;;
12980;SDS011;6555;50.468;8.480;2022-08-19T18:10:36;2.13;;;2.03;;
12980;SDS011;6555;50.468;8.480;2022-08-19T18:15:54;3.15;;;2.28;;
12980;SDS011;6555;50.468;8.480;2022-08-19T18:21:24;2.25;;;2.05;;
12980;SDS011;6555;50.468;8.480;2022-08-19T18:26:45;2.50;;;2.30;;
12980;SDS011;6555;50.468;8.480;2022-08-19T18:32:16;3.00;;;2.20;;
12980;SDS011;6555;50.468;8.480;2022-08-19T18:37:33;1.88;;;1.77;;
12980;SDS011;6555;50.468;8.480;2022-08-19T18:43:03;2.13;;;2.03;;
12980;SDS011;6555;50.468;8.480;2022-08-19T18:48:39;2.60;;;2.40;;
12980;SDS011;6555;50.468;8.480;2022-08-19T18:54:29;2.00;;;1.90;;
12980;SDS011;6555;50.468;8.480;2022-08-19T18:59:46;2.00;;;1.90;;
12980;SDS011;6555;50.468;8.480;2022-08-19T19:05:18;1.80;;;1.70;;
12980;SDS011;6555;50.468;8.480;2022-08-19T19:10:36;2.05;;;1.95;;
12980;SDS011;6555;50.468;8.480;2022-08-19T19:16:06;1.90;;;1.80;;
12980;SDS011;6555;50.468;8.480;2022-08-19T19:21:33;2.10;;;1.90;;
12980;SDS011;6555;50.468;8.480;2022-08-19T19:27:05;1.95;;;1.85;;
12980;SDS011;6555;50.468;8.480;2022-08-19T19:32:24;2.15;;;1.98;;
12980;SDS011;6555;50.468;8.480;2022-08-19T19:38:00;4.72;;;2.58;;
12980;SDS011;6555;50.468;8.480;2022-08-19T19:43:17;1.73;;;1.63;;
12980;SDS011;6555;50.468;8.480;2022-08-19T19:48:55;1.83;;;1.73;;
12980;SDS011;6555;50.468;8.480;2022-08-19T19:54:13;1.88;;;1.77;;
12980;SDS011;6555;50.468;8.480;2022-08-19T19:59:43;2.28;;;2.10;;
12980;SDS011;6555;50.468;8.480;2022-08-19T20:05:00;1.77;;;1.67;;
12980;SDS011;6555;50.468;8.480;2022-08-19T20:10:31;1.95;;;1.80;;
12980;SDS011;6555;50.468;8.480;2022-08-19T20:15:48;1.90;;;1.80;;
12980;SDS011;6555;50.468;8.480;2022-08-19T20:21:18;1.73;;;1.63;;
12980;SDS011;6555;50.468;8.480;2022-08-19T20:26:36;1.83;;;1.73;;
12980;SDS011;6555;50.468;8.480;2022-08-19T20:32:08;2.38;;;2.17;;
12980;SDS011;6555;50.468;8.480;2022-08-19T20:37:25;2.00;;;1.90;;
12980;SDS011;6555;50.468;8.480;2022-08-19T20:42:56;2.20;;;2.00;;
12980;SDS011;6555;50.468;8.480;2022-08-19T20:48:13;2.42;;;2.10;;
12980;SDS011;6555;50.468;8.480;2022-08-19T20:53:43;1.77;;;1.67;;
12980;SDS011;6555;50.468;8.480;2022-08-19T20:59:00;1.70;;;1.60;;
12980;SDS011;6555;50.468;8.480;2022-08-19T21:04:31;1.77;;;1.65;;
12980;SDS011;6555;50.468;8.480;2022-08-19T21:10:01;1.92;;;1.77;;
12980;SDS011;6555;50.468;8.480;2022-08-19T21:15:18;2.22;;;2.03;;
12980;SDS011;6555;50.468;8.480;2022-08-19T21:20:49;1.77;;;1.67;;
12980;SDS011;6555;50.468;8.480;2022-08-19T21:26:06;2.13;;;1.92;;
12980;SDS011;6555;50.468;8.480;2022-08-19T21:31:37;2.00;;;1.80;;
12980;SDS011;6555;50.468;8.480;2022-08-19T21:36:54;1.88;;;1.77;;
12980;SDS011;6555;50.468;8.480;2022-08-19T21:42:40;2.20;;;2.00;;
12980;SDS011;6555;50.468;8.480;2022-08-19T21:47:57;1.80;;;1.70;;
12980;SDS011;6555;50.468;8.480;2022-08-19T21:53:28;1.80;;;1.70;;
12980;SDS011;6555;50.468;8.480;2022-08-19T21:58:45;2.05;;;1.85;;
12980;SDS011;6555;50.468;8.480;2022-08-19T22:04:18;2.35;;;1.95;;
12980;SDS011;6555;50.468;8.480;2022-08-19T22:09:35;3.55;;;2.08;;
12980;SDS011;6555;50.468;8.480;2022-08-19T22:15:06;1.88;;;1.75;;
12980;SDS011;6555;50.468;8.480;2022-08-19T22:20:27;1.80;;;1.70;;
12980;SDS011;6555;50.468;8.480;2022-08-19T22:25:59;1.70;;;1.60;;
12980;SDS011;6555;50.468;8.480;2022-08-19T22:31:16;1.80;;;1.70;;
12980;SDS011;6555;50.468;8.480;2022-08-19T22:36:47;2.00;;;1.75;;
12980;SDS011;6555;50.468;8.480;2022-08-19T22:42:04;2.50;;;1.73;;
12980;SDS011;6555;50.468;8.480;2022-08-19T22:47:34;1.70;;;1.60;;
12980;SDS011;6555;50.468;8.480;2022-08-19T22:52:55;2.20;;;2.00;;
12980;SDS011;6555;50.468;8.480;2022-08-19T22:58:28;2.20;;;1.85;;
12980;SDS011;6555;50.468;8.480;2022-08-19T23:03:47;2.10;;;1.83;;
12980;SDS011;6555;50.468;8.480;2022-08-19T23:09:19;2.33;;;1.65;;
12980;SDS011;6555;50.468;8.480;2022-08-19T23:14:38;1.70;;;1.52;;
12980;SDS011;6555;50.468;8.480;2022-08-19T23:20:08;2.75;;;1.42;;
12980;SDS011;6555;50.468;8.480;2022-08-19T23:25:30;1.90;;;1.80;;
12980;SDS011;6555;50.468;8.480;2022-08-19T23:31:02;2.50;;;1.65;;
12980;SDS011;6555;50.468;8.480;2022-08-19T23:36:19;1.90;;;1.70;;
12980;SDS011;6555;50.468;8.480;2022-08-19T23:41:51;2.22;;;1.90;;
12980;SDS011;6555;50.468;8.480;2022-08-19T23:47:08;1.63;;;1.52;;
12980;SDS011;6555;50.468;8.480;2022-08-19T23:52:41;1.60;;;1.50;;
12980;SDS011;6555;50.468;8.480;2022-08-19T23:58:00;1.83;;;1.70;;
